NCAR-RAP Real-Time Weather Data

Output produced by METARs form (14 October 2019  23:39 UTC)
found at http://weather.rap.ucar.edu/surface/
 
KGSO 142254Z 23004KT 10SM FEW250 19/07 A3006 RMK AO2 SLP172 T01940072
KGSO 142154Z 27005KT 10SM FEW250 23/06 A3004 RMK AO2 SLP167 T02280056
KGSO 142054Z 26008KT 10SM FEW250 24/04 A3005 RMK AO2 SLP167 T02390044 56008
KGSO 141954Z VRB03KT 10SM FEW250 24/04 A3005 RMK AO2 SLP167 T02390039
KGSO 141854Z VRB03KT 10SM CLR 23/04 A3005 RMK AO2 SLP169 T02280039
KGSO 141754Z 32004KT 10SM CLR 22/06 A3007 RMK AO2 SLP175 T02220061 10222 20111 58012
KGSO 141654Z 33005KT 10SM CLR 21/06 A3009 RMK AO2 SLP184 T02110056
KGSO 141554Z 36005KT 10SM CLR 21/07 A3011 RMK AO2 SLP189 T02060072
KGSO 141454Z 36005KT 10SM CLR 18/11 A3010 RMK AO2 SLP188 T01830111 51015
KGSO 141354Z 00000KT 10SM CLR 15/13 A3010 RMK AO2 SLP188 T01500128
KGSO 141327Z 00000KT 5SM BR FEW002 SCT006 13/12 A3009 RMK AO2 T01280122
KGSO 141314Z 00000KT 1 1/2SM BR SCT002 BKN006 12/12 A3009 RMK AO2 T01220122
KGSO 141303Z 00000KT 3/4SM R05R/P6000FT BR BKN002 BKN006 12/12 A3008 RMK AO2 T01170117
KGSO 141258Z 00000KT 1/4SM R05R/P6000FT FG BKN002 BKN006 12/12 A3008 RMK AO2 T01170117
KGSO 141254Z 00000KT 1/8SM R05R/4000VP6000FT FG VV001 12/12 A3008 RMK AO2 SLP183 T01170117
KGSO 141154Z 00000KT 1/8SM R05R/2600V3000FT FG VV001 12/12 A3006 RMK AO2 SLP175 70039 T01170117 10156 20111 51018
KGSO 141130Z 00000KT 1/8SM R05R/5000VP6000FT FG VV001 12/12 A3005 RMK AO2 SFC VIS 1/4 T01170117
KGSO 141127Z 00000KT 1/4SM R05R/5000VP6000FT FG VV001 12/12 A3005 RMK AO2 TWR VIS 3/4 T01170117
KGSO 141054Z 31004KT 1/4SM R05R/P6000FT FG VV002 12/12 A3004 RMK AO2 TWR VIS 3/4 SLP167 T01220122
KGSO 141042Z 00000KT 3/4SM R05R/P6000FT BR BKN002 12/12 A3003 RMK AO2 SFC VIS 2 T01220122
KGSO 141029Z 28003KT 3/4SM R05R/P6000FT BR SCT004 12/11 A3003 RMK AO2 SFC VIS 4 T01170111
KGSO 140954Z 29003KT 6SM BR FEW004 13/13 A3002 RMK AO2 SLP163 T01330128
KGSO 140929Z 28004KT 7SM SCT004 13/13 A3001 RMK AO2 T01280128
KGSO 140914Z 28004KT 9SM BKN004 13/13 A3001 RMK AO2 T01330133
KGSO 140854Z 33004KT 10SM BKN005 14/14 A3000 RMK AO2 SLP154 T01390139 56005
KGSO 140828Z 30004KT 10SM BKN005 14/14 A3000 RMK AO2 CIG 002V007 T01440139
KGSO 140754Z 29005KT 3/4SM R05R/P6000FT BR OVC002 15/15 A3000 RMK AO2 SFC VIS 4 SLP154 T01500150
KGSO 140654Z 30005KT 3/4SM R05R/P6000FT BR OVC002 15/15 A3001 RMK AO2 SFC VIS 3 SLP155 T01500150
KGSO 140554Z 32006KT 3/4SM R05R/P6000FT BR VV002 16/16 A3002 RMK AO2 SLP159 60000 T01560156 10161 20156 55002
KGSO 140454Z 21003KT 3/4SM R05R/P6000FT BR VV002 16/16 A3000 RMK AO2 SFC VIS 1 SLP153 T01560156 401830144
KGSO 140354Z 00000KT 3/4SM R05R/P6000FT BR OVC002 16/16 A3002 RMK AO2 SFC VIS 2 SLP160 T01610156
KGSO 140347Z 00000KT 3/4SM R05R/P6000FT BR OVC003 16/16 A3002 RMK AO2 SFC VIS 2 T01610156
KGSO 140344Z 00000KT 2 1/2SM BR OVC003 16/16 A3002 RMK AO2 T01610156
KGSO 140254Z 00000KT 10SM OVC004 16/16 A3002 RMK AO2 SLP160 60000 T01560156 50005
KGSO 140225Z 00000KT 10SM OVC004 16/15 A3003 RMK AO2 T01560150
KGSO 140211Z 00000KT 10SM OVC005 16/15 A3003 RMK AO2 CIG 003V007 T01560150
KGSO 140154Z 00000KT 10SM OVC003 16/15 A3003 RMK AO2 CIG 003V007 SLP164 T01560150
KGSO 140054Z 03004KT 10SM OVC003 16/15 A3001 RMK AO2 RAE02 SLP157 P0000 T01560150
KGSO 140041Z 01004KT 6SM BR OVC004 16/15 A3001 RMK AO2 RAE02 P0000 T01560150
KGSO 140024Z 05004KT 1 1/4SM BR OVC004 16/16 A3000 RMK AO2 SFC VIS 6 RAE02 P0000 T01560156
KGSO 140012Z 34003KT 1 1/4SM BR OVC005 16/16 A3001 RMK AO2 SFC VIS 6 RAE02 CIG 002V010 P0000 T01560156
KGSO 132354Z 01003KT 1 1/4SM -RA BR OVC003 16/15 A3001 RMK AO2 SFC VIS 2 1/2 SLP156 P0003 60014 T01560150 10183 20156 53005
KGSO 132311Z 35003KT 1 1/4SM -RA BR BKN003 OVC007 16/16 A3000 RMK AO2 SFC VIS 2 1/2 P0001 T01610156
KGSO 132254Z 36006KT 3/4SM R05R/P6000FT -RA BR OVC002 16/16 A3000 RMK AO2 SFC VIS 2 1/2 RAB25 SLP152 P0000 T01610161
KGSO 132233Z 34006KT 3/4SM R05R/P6000FT -RA BR OVC004 17/17 A2999 RMK AO2 SFC VIS 2 1/2 RAB25 CIG 001V006 P0000 T01720167
KGSO 132154Z 00000KT 8SM OVC008 18/17 A2999 RMK AO2 RAB08E53 SLP151 P0007 T01780172
KGSO 132054Z 00000KT 10SM OVC009 18/17 A2999 RMK AO2 RAB24E33 CIG 005V011 SLP150 P0000 60004 T01780172 56012
KGSO 131954Z 20003KT 3SM BR BKN007 OVC035 18/17 A3000 RMK AO2 RAE54 SLP152 P0003 T01780167
KGSO 131854Z 00000KT 9SM -RA BKN005 BKN048 OVC075 18/17 A3001 RMK AO2 RAE07B39 SLP155 P0001 T01780172
KGSO 131839Z 00000KT 10SM -RA BKN005 BKN048 OVC075 17/17 A3001 RMK AO2 RAE07B39 P0000 T01720167
KGSO 131829Z 00000KT 7SM BKN004 BKN050 OVC080 17/17 A3001 RMK AO2 RAE07 P0000 T01720167
KGSO 131754Z 00000KT 2SM -RA BR FEW004 BKN040 OVC065 16/16 A3003 RMK AO2 SLP162 P0024 60025 T01610156 10183 20150 58016
KGSO 131742Z 00000KT 1SM R05R/P6000FT +RA BR FEW006 BKN040 OVC090 16/16 A3004 RMK AO2 P0014 T01610156
KGSO 131654Z 17006KT 6SM RA BR SCT065 BKN085 OVC120 17/15 A3005 RMK AO2 RAB34 SLP169 P0001 T01720150
KGSO 131554Z 13003KT 10SM SCT046 BKN060 OVC110 17/13 A3008 RMK AO2 RAB22E35 SLP179 P0000 T01720128
KGSO 131454Z COR 11004KT 10SM FEW039 BKN080 BKN095 16/12 A3008 RMK AO2 RAE54 SLP178 P0000 60000 T01610117 51007
KGSO 131354Z 06004KT 10SM -RA SCT065 BKN080 OVC100 16/11 A3008 RMK AO2 RAB54 SLP178 P0000 T01610111
KGSO 131254Z 03007KT 10SM FEW070 BKN095 BKN120 16/11 A3006 RMK AO2 SLP173 T01560106
KGSO 131154Z 02004KT 10SM BKN080 BKN095 15/11 A3005 RMK AO2 SLP170 T01500111 10178 20144 51010
KGSO 131054Z 06005KT 10SM BKN080 BKN120 14/12 A3005 RMK AO2 SLP167 T01440122
KGSO 130954Z VRB03KT 10SM SCT075 16/13 A3003 RMK AO2 SLP162 T01560128
KGSO 130854Z 04004KT 10SM FEW090 BKN110 16/13 A3002 RMK AO2 SLP158 T01610133 53002
KGSO 130754Z 06005KT 10SM SCT060 BKN090 17/13 A3001 RMK AO2 SLP155 T01670133
KGSO 130654Z 06005KT 10SM BKN065 BKN090 17/14 A3002 RMK AO2 SLP157 T01720139
KGSO 130554Z 06008KT 10SM BKN070 BKN090 18/14 A3002 RMK AO2 SLP156 T01780139 10228 20172 56004
KGSO 130454Z 06006KT 10SM BKN065 BKN100 18/14 A3002 RMK AO2 SLP156 T01830144 402720133
KGSO 130354Z 05005KT 10SM BKN070 19/14 A3003 RMK AO2 SLP159 T01890139
KGSO 130254Z 02005KT 10SM SCT065 BKN250 19/15 A3003 RMK AO2 SLP161 T01940150 51013
KGSO 130154Z 01003KT 10SM BKN065 21/16 A3002 RMK AO2 SLP159 T02060156
KGSO 130054Z 00000KT 10SM OVC070 22/16 A3000 RMK AO2 SLP152 T02220156
KGSO 122354Z 01003KT 10SM FEW100 SCT250 23/14 A2999 RMK AO2 SLP149 T02280139 10272 20222 53006